Terminal Aerodrome Forecast
Issued by NWS Sioux Falls, SD

Home | Current Version | Previous Version | Graphics & Text | Print | Product List | Glossary On
Versions: 1 2 3 4 5 6 7 8 9 10 11 12 13 14 15
000
FTUS43 KFSD 171120
TAFHON
TAF
KHON 171120Z 1712/1812 13008KT P6SM SCT150
     FM180000 10012KT P6SM BKN100
     FM180500 06005KT 6SM -SN OVC025
     FM180700 02005KT 2SM -SN BR SCT007 OVC015=

USA.gov is the U.S. government's official web portal to all federal, state and local government web resources and services.